Date,TemperatureHighF,TemperatureAvgF,TemperatureLowF,DewpointHighF,DewpointAvgF,DewpointLowF,HumidityHigh,HumidityAvg,HumidityLow,PressureMaxIn,PressureMinIn,WindSpeedMaxMPH,WindSpeedAvgMPH,GustSpeedMaxMPH,PrecipitationSumIn
2013-3-1,45,40,35,34,31,27,84,69,58,29.85,29.70,12,4,17,0.00
2013-3-2,41,37,31,27,25,23,77,63,53,29.88,29.78,12,4,16,0.00
2013-3-3,38,34,30,26,23,20,73,63,51,29.86,29.78,14,7,23,0.00
2013-3-4,42,34,29,24,21,18,65,58,49,30.03,29.87,19,8,26,0.00
2013-3-5,49,37,29,32,26,21,88,66,46,30.09,29.92,8,2,13,0.00
2013-3-6,41,39,36,38,35,32,93,87,75,29.94,29.65,15,6,28,0.55
2013-3-7,46,42,38,31,29,26,74,61,51,30.12,29.94,13,5,24,0.00
2013-3-8,46,40,34,32,27,22,77,62,52,30.25,30.10,14,6,25,0.00
2013-3-9,66,46,33,32,27,23,88,53,22,30.32,30.24,8,2,17,0.00
2013-3-10,59,41,28,42,34,27,97,79,47,30.39,30.30,6,1,17,0.00
2013-3-11,57,46,37,49,44,36,96,91,75,30.32,30.05,4,0,7,0.00
2013-3-12,60,53,42,58,49,34,97,87,70,30.03,29.71,15,3,18,0.74
2013-3-13,49,42,32,37,30,22,92,63,39,30.02,29.89,14,5,23,0.00
2013-3-14,44,37,32,23,20,16,66,50,38,30.07,29.98,16,8,26,0.00
2013-3-15,52,39,24,31,24,15,80,56,38,30.08,29.79,23,4,24,0.00
2013-3-16,48,40,35,38,34,29,92,81,62,29.96,29.73,8,1,12,0.04
2013-3-17,41,37,30,34,28,23,93,73,55,30.31,29.95,8,2,12,0.00
2013-3-18,41,37,34,39,30,21,96,76,58,30.38,29.89,6,2,11,0.60
2013-3-19,54,44,40,42,36,19,97,78,31,29.91,29.74,10,3,18,0.06
2013-3-20,50,42,28,28,22,19,80,48,30,29.98,29.81,25,6,27,0.00
2013-3-21,41,35,30,28,20,12,82,56,38,29.87,29.72,14,5,22,0.00
2013-3-22,44,36,29,23,21,15,65,54,43,30.00,29.86,22,7,24,0.00
2013-3-23,49,39,29,28,24,21,75,56,40,30.02,29.92,15,5,25,0.00
2013-3-24,46,38,27,30,25,22,87,62,44,30.02,29.69,6,1,8,0.00
2013-3-25,38,36,33,35,32,29,94,89,71,29.70,29.49,8,2,14,0.61
2013-3-26,52,42,33,37,33,28,94,71,41,29.95,29.69,12,4,17,0.02
2013-3-27,51,44,38,34,30,27,78,61,42,30.08,29.95,19,6,22,0.00
2013-3-28,49,43,35,34,31,28,82,64,50,30.20,30.06,11,4,21,0.00
2013-3-29,54,46,36,33,31,29,81,58,44,30.24,30.14,14,4,19,0.00
2013-3-30,59,46,31,37,31,28,96,62,32,30.24,30.13,11,2,16,0.00
2013-3-31,58,46,33,50,41,30,96,86,59,30.16,29.75,8,1,10,0.11